sensor_id;sensor_type;location;lat;lon;timestamp;pressure;altitude;pressure_sealevel;temperature;humidity
64298;BME280;50639;53.270;7.956;2023-03-16T00:01:37;101905.06;;;0.67;72.22
64298;BME280;50639;53.270;7.956;2023-03-16T00:04:02;101895.47;;;0.66;71.56
64298;BME280;50639;53.270;7.956;2023-03-16T00:06:28;101904.13;;;0.68;70.71
64298;BME280;50639;53.270;7.956;2023-03-16T00:08:53;101904.84;;;0.70;70.81
64298;BME280;50639;53.270;7.956;2023-03-16T00:11:27;101901.41;;;0.70;69.99
64298;BME280;50639;53.270;7.956;2023-03-16T00:13:52;101910.09;;;0.70;70.22
64298;BME280;50639;53.270;7.956;2023-03-16T00:16:18;101899.59;;;0.70;69.58
64298;BME280;50639;53.270;7.956;2023-03-16T00:18:43;101901.41;;;0.70;70.18
64298;BME280;50639;53.270;7.956;2023-03-16T00:21:12;101904.75;;;0.72;69.71
64298;BME280;50639;53.270;7.956;2023-03-16T00:23:37;101897.78;;;0.71;69.66
64298;BME280;50639;53.270;7.956;2023-03-16T00:26:05;101904.13;;;0.68;69.21
64298;BME280;50639;53.270;7.956;2023-03-16T00:28:33;101893.78;;;0.65;69.47
64298;BME280;50639;53.270;7.956;2023-03-16T00:31:05;101894.81;;;0.63;68.91
64298;BME280;50639;53.270;7.956;2023-03-16T00:33:32;101893.03;;;0.63;68.99
64298;BME280;50639;53.270;7.956;2023-03-16T00:36:05;101887.69;;;0.65;68.75
64298;BME280;50639;53.270;7.956;2023-03-16T00:38:34;101884.03;;;0.67;68.70
64298;BME280;50639;53.270;7.956;2023-03-16T00:41:05;101886.56;;;0.69;68.47
64298;BME280;50639;53.270;7.956;2023-03-16T00:43:33;101878.66;;;0.69;67.56
64298;BME280;50639;53.270;7.956;2023-03-16T00:46:06;101875.81;;;0.72;68.30
64298;BME280;50639;53.270;7.956;2023-03-16T00:48:34;101881.59;;;0.64;68.12
64298;BME280;50639;53.270;7.956;2023-03-16T00:51:04;101882.25;;;0.68;67.08
64298;BME280;50639;53.270;7.956;2023-03-16T00:53:34;101877.84;;;0.68;67.38
64298;BME280;50639;53.270;7.956;2023-03-16T00:56:01;101871.91;;;0.65;67.30
64298;BME280;50639;53.270;7.956;2023-03-16T00:58:31;101877.28;;;0.63;68.10
64298;BME280;50639;53.270;7.956;2023-03-16T01:01:04;101875.81;;;0.59;67.99
64298;BME280;50639;53.270;7.956;2023-03-16T01:03:31;101875.47;;;0.51;68.06
64298;BME280;50639;53.270;7.956;2023-03-16T01:05:56;101874.22;;;0.57;67.67
64298;BME280;50639;53.270;7.956;2023-03-16T01:08:26;101874.41;;;0.54;67.67
64298;BME280;50639;53.270;7.956;2023-03-16T01:10:54;101878.00;;;0.53;67.13
64298;BME280;50639;53.270;7.956;2023-03-16T01:13:20;101870.81;;;0.55;66.91
64298;BME280;50639;53.270;7.956;2023-03-16T01:15:49;101869.97;;;0.54;67.24
64298;BME280;50639;53.270;7.956;2023-03-16T01:18:15;101871.38;;;0.60;68.00
64298;BME280;50639;53.270;7.956;2023-03-16T01:20:42;101870.06;;;0.40;67.88
64298;BME280;50639;53.270;7.956;2023-03-16T01:23:16;101861.97;;;0.43;67.69
64298;BME280;50639;53.270;7.956;2023-03-16T01:25:42;101862.16;;;0.40;66.53
64298;BME280;50639;53.270;7.956;2023-03-16T01:28:08;101863.34;;;0.49;67.84
64298;BME280;50639;53.270;7.956;2023-03-16T01:30:34;101849.19;;;0.51;67.79
64298;BME280;50639;53.270;7.956;2023-03-16T01:33:00;101850.63;;;0.55;67.15
64298;BME280;50639;53.270;7.956;2023-03-16T01:35:26;101853.28;;;0.55;67.18
64298;BME280;50639;53.270;7.956;2023-03-16T01:37:52;101839.19;;;0.56;67.03
64298;BME280;50639;53.270;7.956;2023-03-16T01:40:22;101840.56;;;0.62;67.04
64298;BME280;50639;53.270;7.956;2023-03-16T01:42:57;101842.41;;;0.47;67.38
64298;BME280;50639;53.270;7.956;2023-03-16T01:48:28;101823.84;;;0.50;67.10
64298;BME280;50639;53.270;7.956;2023-03-16T01:51:24;101825.72;;;0.48;67.51
64298;BME280;50639;53.270;7.956;2023-03-16T01:53:55;101816.22;;;0.46;66.75
64298;BME280;50639;53.270;7.956;2023-03-16T01:56:26;101820.13;;;0.40;67.01
64298;BME280;50639;53.270;7.956;2023-03-16T01:58:55;101813.25;;;0.37;67.33
64298;BME280;50639;53.270;7.956;2023-03-16T02:01:25;101804.53;;;0.37;67.38
64298;BME280;50639;53.270;7.956;2023-03-16T02:03:55;101802.00;;;0.35;67.16
64298;BME280;50639;53.270;7.956;2023-03-16T02:06:21;101805.88;;;0.30;66.72
64298;BME280;50639;53.270;7.956;2023-03-16T02:08:52;101805.03;;;0.29;67.72
64298;BME280;50639;53.270;7.956;2023-03-16T02:11:21;101801.47;;;0.30;67.48
64298;BME280;50639;53.270;7.956;2023-03-16T02:13:57;101802.41;;;0.29;67.47
64298;BME280;50639;53.270;7.956;2023-03-16T02:16:27;101797.22;;;0.15;67.88
64298;BME280;50639;53.270;7.956;2023-03-16T02:18:52;101783.34;;;0.13;67.57
64298;BME280;50639;53.270;7.956;2023-03-16T02:23:50;101781.38;;;0.17;67.43
64298;BME280;50639;53.270;7.956;2023-03-16T02:32:24;101786.72;;;0.15;67.69
64298;BME280;50639;53.270;7.956;2023-03-16T02:34:51;101782.31;;;0.16;67.42
64298;BME280;50639;53.270;7.956;2023-03-16T02:37:16;101791.47;;;0.23;67.67
64298;BME280;50639;53.270;7.956;2023-03-16T02:39:42;101794.84;;;0.25;67.85
64298;BME280;50639;53.270;7.956;2023-03-16T02:42:12;101789.38;;;0.28;67.67
64298;BME280;50639;53.270;7.956;2023-03-16T02:44:38;101788.28;;;0.18;67.76
64298;BME280;50639;53.270;7.956;2023-03-16T02:47:11;101790.31;;;0.27;67.46
64298;BME280;50639;53.270;7.956;2023-03-16T02:49:42;101788.94;;;0.21;68.44
64298;BME280;50639;53.270;7.956;2023-03-16T02:52:09;101788.94;;;0.21;67.91
64298;BME280;50639;53.270;7.956;2023-03-16T02:54:35;101794.34;;;0.06;68.48
64298;BME280;50639;53.270;7.956;2023-03-16T02:57:02;101786.38;;;0.07;68.24
64298;BME280;50639;53.270;7.956;2023-03-16T02:59:29;101792.47;;;0.08;68.21
64298;BME280;50639;53.270;7.956;2023-03-16T03:01:55;101796.28;;;0.16;68.15
64298;BME280;50639;53.270;7.956;2023-03-16T03:04:20;101789.53;;;0.12;67.73
64298;BME280;50639;53.270;7.956;2023-03-16T03:06:48;101788.28;;;0.18;67.91
64298;BME280;50639;53.270;7.956;2023-03-16T03:09:14;101789.84;;;0.08;67.59
64298;BME280;50639;53.270;7.956;2023-03-16T03:11:40;101793.09;;;0.11;68.17
64298;BME280;50639;53.270;7.956;2023-03-16T03:14:06;101781.56;;;0.14;67.83
64298;BME280;50639;53.270;7.956;2023-03-16T03:16:32;101783.69;;;0.21;67.65
64298;BME280;50639;53.270;7.956;2023-03-16T03:18:58;101783.88;;;0.18;68.14
64298;BME280;50639;53.270;7.956;2023-03-16T03:21:26;101784.69;;;0.33;67.62
64298;BME280;50639;53.270;7.956;2023-03-16T03:23:51;101782.38;;;0.41;67.84
64298;BME280;50639;53.270;7.956;2023-03-16T03:26:17;101777.88;;;0.43;67.21
64298;BME280;50639;53.270;7.956;2023-03-16T03:28:46;101777.66;;;0.46;67.18
64298;BME280;50639;53.270;7.956;2023-03-16T03:31:16;101776.66;;;0.61;67.40
64298;BME280;50639;53.270;7.956;2023-03-16T03:33:43;101775.69;;;0.62;67.24
64298;BME280;50639;53.270;7.956;2023-03-16T03:36:09;101779.28;;;0.74;66.67
64298;BME280;50639;53.270;7.956;2023-03-16T03:38:36;101783.59;;;0.75;66.87
64298;BME280;50639;53.270;7.956;2023-03-16T03:41:03;101781.59;;;0.91;67.00
64298;BME280;50639;53.270;7.956;2023-03-16T03:43:33;101772.25;;;0.87;67.03
64298;BME280;50639;53.270;7.956;2023-03-16T03:46:00;101780.22;;;0.98;66.24
64298;BME280;50639;53.270;7.956;2023-03-16T03:48:29;101767.28;;;1.08;66.67
64298;BME280;50639;53.270;7.956;2023-03-16T03:50:55;101772.25;;;1.12;66.34
64298;BME280;50639;53.270;7.956;2023-03-16T03:53:36;101779.28;;;1.25;65.83
64298;BME280;50639;53.270;7.956;2023-03-16T03:56:14;101772.22;;;1.38;65.43
64298;BME280;50639;53.270;7.956;2023-03-16T03:58:40;101766.56;;;1.31;66.19
64298;BME280;50639;53.270;7.956;2023-03-16T04:01:06;101760.50;;;1.42;65.73
64298;BME280;50639;53.270;7.956;2023-03-16T04:03:32;101747.69;;;1.37;64.83
64298;BME280;50639;53.270;7.956;2023-03-16T04:05:58;101748.28;;;1.41;64.55
64298;BME280;50639;53.270;7.956;2023-03-16T04:08:24;101757.88;;;1.55;65.07
64298;BME280;50639;53.270;7.956;2023-03-16T04:10:50;101735.75;;;1.57;65.44
64298;BME280;50639;53.270;7.956;2023-03-16T04:13:18;101743.00;;;1.66;64.94
64298;BME280;50639;53.270;7.956;2023-03-16T04:15:44;101742.25;;;1.64;64.36
64298;BME280;50639;53.270;7.956;2023-03-16T04:18:21;101734.00;;;1.69;63.90
64298;BME280;50639;53.270;7.956;2023-03-16T04:20:46;101737.38;;;1.71;64.93
64298;BME280;50639;53.270;7.956;2023-03-16T04:23:16;101716.59;;;1.55;64.72
64298;BME280;50639;53.270;7.956;2023-03-16T04:25:43;101697.75;;;1.48;64.19
64298;BME280;50639;53.270;7.956;2023-03-16T04:28:10;101734.53;;;1.74;63.90
64298;BME280;50639;53.270;7.956;2023-03-16T04:30:40;101720.06;;;1.79;64.21
64298;BME280;50639;53.270;7.956;2023-03-16T04:33:16;101722.09;;;1.76;64.02
64298;BME280;50639;53.270;7.956;2023-03-16T04:35:43;101729.88;;;1.77;64.54
64298;BME280;50639;53.270;7.956;2023-03-16T04:38:10;101725.22;;;1.81;63.87
64298;BME280;50639;53.270;7.956;2023-03-16T04:40:47;101697.97;;;1.69;64.63
64298;BME280;50639;53.270;7.956;2023-03-16T04:43:16;101733.34;;;1.78;63.34
64298;BME280;50639;53.270;7.956;2023-03-16T04:45:42;101706.22;;;1.65;63.73
64298;BME280;50639;53.270;7.956;2023-03-16T04:48:08;101718.66;;;1.86;63.71
64298;BME280;50639;53.270;7.956;2023-03-16T04:50:35;101697.56;;;1.75;63.80
64298;BME280;50639;53.270;7.956;2023-03-16T04:53:01;101699.66;;;1.70;63.86
64298;BME280;50639;53.270;7.956;2023-03-16T04:55:29;101705.22;;;1.78;62.88
64298;BME280;50639;53.270;7.956;2023-03-16T04:57:55;101688.53;;;1.67;63.98
64298;BME280;50639;53.270;7.956;2023-03-16T05:00:22;101701.34;;;1.71;64.07
64298;BME280;50639;53.270;7.956;2023-03-16T05:03:04;101694.59;;;1.67;63.03
64298;BME280;50639;53.270;7.956;2023-03-16T05:05:30;101703.59;;;1.65;63.34
64298;BME280;50639;53.270;7.956;2023-03-16T05:07:58;101709.16;;;1.73;64.17
64298;BME280;50639;53.270;7.956;2023-03-16T05:10:27;101687.97;;;1.74;63.43
64298;BME280;50639;53.270;7.956;2023-03-16T05:12:56;101695.13;;;1.72;63.58
64298;BME280;50639;53.270;7.956;2023-03-16T05:15:21;101685.94;;;1.78;63.81
64298;BME280;50639;53.270;7.956;2023-03-16T05:18:06;101678.56;;;1.83;63.06
64298;BME280;50639;53.270;7.956;2023-03-16T05:20:32;101691.88;;;1.93;62.99
64298;BME280;50639;53.270;7.956;2023-03-16T05:23:00;101665.97;;;1.86;62.69
64298;BME280;50639;53.270;7.956;2023-03-16T05:25:31;101681.88;;;1.85;62.75
64298;BME280;50639;53.270;7.956;2023-03-16T05:28:01;101684.84;;;1.93;62.51
64298;BME280;50639;53.270;7.956;2023-03-16T05:30:40;101664.44;;;1.84;62.43
64298;BME280;50639;53.270;7.956;2023-03-16T05:33:10;101686.09;;;1.87;62.35
64298;BME280;50639;53.270;7.956;2023-03-16T05:35:36;101664.44;;;1.84;61.92
64298;BME280;50639;53.270;7.956;2023-03-16T05:38:07;101671.53;;;1.95;61.93
64298;BME280;50639;53.270;7.956;2023-03-16T05:40:39;101653.44;;;1.90;62.39
64298;BME280;50639;53.270;7.956;2023-03-16T05:43:15;101653.81;;;1.97;62.33
64298;BME280;50639;53.270;7.956;2023-03-16T05:45:47;101670.50;;;2.08;61.79
64298;BME280;50639;53.270;7.956;2023-03-16T05:48:17;101676.50;;;2.10;61.36
64298;BME280;50639;53.270;7.956;2023-03-16T05:50:51;101677.97;;;2.25;61.18
64298;BME280;50639;53.270;7.956;2023-03-16T05:53:22;101680.09;;;2.20;61.60
64298;BME280;50639;53.270;7.956;2023-03-16T05:55:56;101663.06;;;2.02;61.92
64298;BME280;50639;53.270;7.956;2023-03-16T05:58:23;101682.06;;;2.30;61.37
64298;BME280;50639;53.270;7.956;2023-03-16T06:00:49;101649.53;;;2.07;61.09
64298;BME280;50639;53.270;7.956;2023-03-16T06:03:23;101686.25;;;2.32;61.59
64298;BME280;50639;53.270;7.956;2023-03-16T06:05:50;101687.84;;;2.35;61.23
64298;BME280;50639;53.270;7.956;2023-03-16T06:08:22;101688.94;;;2.43;60.27
64298;BME280;50639;53.270;7.956;2023-03-16T06:10:49;101684.25;;;2.47;59.82
64298;BME280;50639;53.270;7.956;2023-03-16T06:13:16;101665.78;;;2.36;60.16
64298;BME280;50639;53.270;7.956;2023-03-16T06:15:42;101668.44;;;2.47;60.63
64298;BME280;50639;53.270;7.956;2023-03-16T06:18:09;101682.16;;;2.63;60.25
64298;BME280;50639;53.270;7.956;2023-03-16T06:20:34;101676.50;;;2.68;59.97
64298;BME280;50639;53.270;7.956;2023-03-16T06:23:00;101673.63;;;2.59;59.66
64298;BME280;50639;53.270;7.956;2023-03-16T06:25:25;101681.63;;;2.58;60.15
64298;BME280;50639;53.270;7.956;2023-03-16T06:27:52;101673.25;;;2.64;59.74
64298;BME280;50639;53.270;7.956;2023-03-16T06:30:18;101679.75;;;2.82;59.59
64298;BME280;50639;53.270;7.956;2023-03-16T06:32:49;101668.81;;;2.76;58.92
64298;BME280;50639;53.270;7.956;2023-03-16T06:35:18;101673.38;;;2.74;59.17
64298;BME280;50639;53.270;7.956;2023-03-16T06:37:56;101668.59;;;2.68;59.36
64298;BME280;50639;53.270;7.956;2023-03-16T06:40:35;101687.41;;;2.85;59.17
64298;BME280;50639;53.270;7.956;2023-03-16T06:43:00;101670.63;;;2.86;59.42
64298;BME280;50639;53.270;7.956;2023-03-16T06:45:27;101679.75;;;3.05;58.73
64298;BME280;50639;53.270;7.956;2023-03-16T06:47:55;101685.16;;;3.14;58.65
64298;BME280;50639;53.270;7.956;2023-03-16T06:50:23;101684.41;;;3.23;58.35
64298;BME280;50639;53.270;7.956;2023-03-16T06:52:48;101690.88;;;3.30;58.22
64298;BME280;50639;53.270;7.956;2023-03-16T06:55:14;101677.31;;;3.35;58.15
64298;BME280;50639;53.270;7.956;2023-03-16T06:57:43;101664.88;;;3.15;57.67
64298;BME280;50639;53.270;7.956;2023-03-16T07:00:13;101681.91;;;3.33;58.13
64298;BME280;50639;53.270;7.956;2023-03-16T07:02:40;101683.94;;;3.29;57.93
64298;BME280;50639;53.270;7.956;2023-03-16T07:05:09;101685.50;;;3.32;57.82
64298;BME280;50639;53.270;7.956;2023-03-16T07:07:40;101680.28;;;3.53;57.54
64298;BME280;50639;53.270;7.956;2023-03-16T07:10:09;101681.59;;;3.58;57.13
64298;BME280;50639;53.270;7.956;2023-03-16T07:12:34;101676.56;;;3.44;57.53
64298;BME280;50639;53.270;7.956;2023-03-16T07:15:00;101677.63;;;3.53;57.17
64298;BME280;50639;53.270;7.956;2023-03-16T07:17:26;101681.84;;;3.55;57.18
64298;BME280;50639;53.270;7.956;2023-03-16T07:19:52;101680.88;;;3.56;57.75
64298;BME280;50639;53.270;7.956;2023-03-16T07:22:18;101684.19;;;3.69;57.28
64298;BME280;50639;53.270;7.956;2023-03-16T07:24:43;101658.03;;;3.66;57.36
64298;BME280;50639;53.270;7.956;2023-03-16T07:27:09;101683.78;;;3.85;56.77
64298;BME280;50639;53.270;7.956;2023-03-16T07:29:35;101673.91;;;3.87;56.72
64298;BME280;50639;53.270;7.956;2023-03-16T07:32:02;101674.63;;;3.89;57.00
64298;BME280;50639;53.270;7.956;2023-03-16T07:34:34;101675.31;;;4.02;55.83
64298;BME280;50639;53.270;7.956;2023-03-16T07:37:00;101674.00;;;3.97;56.13
64298;BME280;50639;53.270;7.956;2023-03-16T07:39:28;101681.66;;;4.11;56.69
64298;BME280;50639;53.270;7.956;2023-03-16T07:42:02;101681.88;;;4.08;55.86
64298;BME280;50639;53.270;7.956;2023-03-16T07:44:36;101685.97;;;4.12;55.59
64298;BME280;50639;53.270;7.956;2023-03-16T07:47:05;101683.66;;;4.19;55.91
64298;BME280;50639;53.270;7.956;2023-03-16T07:49:31;101681.31;;;4.25;56.20
64298;BME280;50639;53.270;7.956;2023-03-16T07:51:58;101684.88;;;4.35;55.71
64298;BME280;50639;53.270;7.956;2023-03-16T07:54:32;101679.47;;;4.37;55.29
64298;BME280;50639;53.270;7.956;2023-03-16T07:56:58;101690.09;;;4.46;55.45
64298;BME280;50639;53.270;7.956;2023-03-16T07:59:35;101686.22;;;4.50;55.08
64298;BME280;50639;53.270;7.956;2023-03-16T08:02:03;101696.94;;;4.49;55.18
64298;BME280;50639;53.270;7.956;2023-03-16T08:04:28;101697.16;;;4.57;55.71
64298;BME280;50639;53.270;7.956;2023-03-16T08:06:54;101685.00;;;4.54;55.69
64298;BME280;50639;53.270;7.956;2023-03-16T08:09:27;101689.03;;;4.79;54.63
64298;BME280;50639;53.270;7.956;2023-03-16T08:11:53;101691.88;;;4.67;54.76
64298;BME280;50639;53.270;7.956;2023-03-16T08:14:18;101695.22;;;4.89;54.94
64298;BME280;50639;53.270;7.956;2023-03-16T08:16:57;101692.56;;;4.89;53.84
64298;BME280;50639;53.270;7.956;2023-03-16T08:19:24;101698.44;;;4.93;54.05
64298;BME280;50639;53.270;7.956;2023-03-16T08:21:51;101697.06;;;4.99;53.57
64298;BME280;50639;53.270;7.956;2023-03-16T08:24:16;101694.97;;;5.02;54.07
64298;BME280;50639;53.270;7.956;2023-03-16T08:26:42;101684.88;;;4.86;53.57
64298;BME280;50639;53.270;7.956;2023-03-16T08:29:08;101697.19;;;4.97;54.33
64298;BME280;50639;53.270;7.956;2023-03-16T08:31:36;101672.94;;;4.92;53.75
64298;BME280;50639;53.270;7.956;2023-03-16T08:34:13;101692.25;;;5.13;52.85
64298;BME280;50639;53.270;7.956;2023-03-16T08:36:42;101686.94;;;5.13;53.12
64298;BME280;50639;53.270;7.956;2023-03-16T08:39:10;101687.13;;;5.21;53.40
64298;BME280;50639;53.270;7.956;2023-03-16T08:41:41;101694.38;;;5.29;54.21
64298;BME280;50639;53.270;7.956;2023-03-16T08:44:24;101678.50;;;5.29;53.70
64298;BME280;50639;53.270;7.956;2023-03-16T08:46:53;101678.66;;;5.27;53.36
64298;BME280;50639;53.270;7.956;2023-03-16T08:49:19;101691.50;;;5.42;53.03
64298;BME280;50639;53.270;7.956;2023-03-16T08:51:48;101689.31;;;5.56;53.25
64298;BME280;50639;53.270;7.956;2023-03-16T08:54:14;101690.72;;;5.60;54.01
64298;BME280;50639;53.270;7.956;2023-03-16T08:56:40;101691.25;;;5.64;52.83
64298;BME280;50639;53.270;7.956;2023-03-16T08:59:05;101690.97;;;5.57;52.82
64298;BME280;50639;53.270;7.956;2023-03-16T09:01:31;101683.47;;;5.82;52.70
64298;BME280;50639;53.270;7.956;2023-03-16T09:03:56;101684.47;;;5.71;52.98
64298;BME280;50639;53.270;7.956;2023-03-16T09:06:22;101684.28;;;5.63;52.35
64298;BME280;50639;53.270;7.956;2023-03-16T09:08:48;101684.72;;;5.68;52.19
64298;BME280;50639;53.270;7.956;2023-03-16T09:11:16;101684.03;;;5.76;51.64
64298;BME280;50639;53.270;7.956;2023-03-16T09:13:43;101682.38;;;5.84;52.71
64298;BME280;50639;53.270;7.956;2023-03-16T09:16:10;101678.91;;;5.93;52.67
64298;BME280;50639;53.270;7.956;2023-03-16T09:18:36;101682.81;;;5.89;53.18
64298;BME280;50639;53.270;7.956;2023-03-16T09:21:04;101690.50;;;5.92;52.59
64298;BME280;50639;53.270;7.956;2023-03-16T09:23:31;101683.50;;;5.91;53.12
64298;BME280;50639;53.270;7.956;2023-03-16T09:26:01;101667.91;;;5.98;52.56
64298;BME280;50639;53.270;7.956;2023-03-16T09:28:28;101678.34;;;6.09;52.43
64298;BME280;50639;53.270;7.956;2023-03-16T09:30:54;101670.38;;;6.19;54.02
64298;BME280;50639;53.270;7.956;2023-03-16T09:33:22;101669.28;;;6.12;51.87
64298;BME280;50639;53.270;7.956;2023-03-16T09:35:48;101672.91;;;6.20;53.63
64298;BME280;50639;53.270;7.956;2023-03-16T09:38:15;101675.53;;;6.39;52.43
64298;BME280;50639;53.270;7.956;2023-03-16T09:40:42;101673.03;;;6.28;53.30
64298;BME280;50639;53.270;7.956;2023-03-16T09:43:20;101672.19;;;6.37;52.87
64298;BME280;50639;53.270;7.956;2023-03-16T09:48:16;101678.53;;;6.73;52.03
64298;BME280;50639;53.270;7.956;2023-03-16T09:50:46;101675.97;;;6.91;51.93
64298;BME280;50639;53.270;7.956;2023-03-16T09:55:38;101670.47;;;7.02;51.92
64298;BME280;50639;53.270;7.956;2023-03-16T09:58:09;101667.81;;;7.02;51.33
64298;BME280;50639;53.270;7.956;2023-03-16T10:00:46;101652.59;;;7.22;51.37
64298;BME280;50639;53.270;7.956;2023-03-16T10:03:41;101669.19;;;7.34;50.12
64298;BME280;50639;53.270;7.956;2023-03-16T10:06:12;101661.06;;;7.35;50.10
64298;BME280;50639;53.270;7.956;2023-03-16T10:08:52;101660.31;;;7.43;50.25
64298;BME280;50639;53.270;7.956;2023-03-16T10:11:46;101662.75;;;7.36;49.60
64298;BME280;50639;53.270;7.956;2023-03-16T10:17:18;101661.47;;;7.58;50.32
64298;BME280;50639;53.270;7.956;2023-03-16T10:19:52;101658.66;;;7.60;50.82
64298;BME280;50639;53.270;7.956;2023-03-16T10:22:29;101657.16;;;7.75;50.85
64298;BME280;50639;53.270;7.956;2023-03-16T10:25:00;101648.13;;;7.85;50.09
64298;BME280;50639;53.270;7.956;2023-03-16T10:27:38;101651.09;;;8.00;49.64
64298;BME280;50639;53.270;7.956;2023-03-16T10:32:39;101657.97;;;8.11;49.34
64298;BME280;50639;53.270;7.956;2023-03-16T10:35:29;101649.59;;;8.23;50.67
64298;BME280;50639;53.270;7.956;2023-03-16T10:37:56;101640.25;;;8.37;50.12
64298;BME280;50639;53.270;7.956;2023-03-16T10:40:23;101633.31;;;8.44;51.23
64298;BME280;50639;53.270;7.956;2023-03-16T10:42:48;101635.38;;;8.84;50.58
64298;BME280;50639;53.270;7.956;2023-03-16T10:45:28;101625.28;;;8.96;49.98
64298;BME280;50639;53.270;7.956;2023-03-16T10:48:16;101619.09;;;8.87;50.32
64298;BME280;50639;53.270;7.956;2023-03-16T10:50:49;101616.38;;;8.79;49.72
64298;BME280;50639;53.270;7.956;2023-03-16T10:53:18;101628.41;;;8.91;49.72
64298;BME280;50639;53.270;7.956;2023-03-16T10:55:46;101618.50;;;8.76;51.26
64298;BME280;50639;53.270;7.956;2023-03-16T10:58:24;101631.03;;;8.83;50.80
64298;BME280;50639;53.270;7.956;2023-03-16T11:00:51;101635.31;;;9.10;49.89
64298;BME280;50639;53.270;7.956;2023-03-16T11:03:25;101630.06;;;9.42;50.17
64298;BME280;50639;53.270;7.956;2023-03-16T11:06:02;101628.78;;;9.55;49.90
64298;BME280;50639;53.270;7.956;2023-03-16T11:08:38;101624.13;;;9.57;50.52
64298;BME280;50639;53.270;7.956;2023-03-16T11:11:10;101629.63;;;9.71;49.99
64298;BME280;50639;53.270;7.956;2023-03-16T11:13:43;101636.63;;;9.64;50.30
64298;BME280;50639;53.270;7.956;2023-03-16T11:27:24;101611.94;;;9.54;50.92
64298;BME280;50639;53.270;7.956;2023-03-16T11:30:12;101603.97;;;9.78;50.85
64298;BME280;50639;53.270;7.956;2023-03-16T11:32:40;101601.44;;;9.44;50.96
64298;BME280;50639;53.270;7.956;2023-03-16T11:35:12;101597.22;;;9.26;52.13
64298;BME280;50639;53.270;7.956;2023-03-16T11:48:23;101594.22;;;9.21;51.33
64298;BME280;50639;53.270;7.956;2023-03-16T11:54:05;101574.44;;;8.89;53.38
64298;BME280;50639;53.270;7.956;2023-03-16T11:56:42;101582.97;;;8.93;53.47
64298;BME280;50639;53.270;7.956;2023-03-16T12:07:22;101578.91;;;9.23;54.35
64298;BME280;50639;53.270;7.956;2023-03-16T12:12:58;101572.16;;;8.94;54.61
64298;BME280;50639;53.270;7.956;2023-03-16T12:15:40;101566.47;;;8.97;53.97
64298;BME280;50639;53.270;7.956;2023-03-16T12:20:52;101567.13;;;8.91;57.44
64298;BME280;50639;53.270;7.956;2023-03-16T12:23:37;101561.44;;;8.44;58.03
64298;BME280;50639;53.270;7.956;2023-03-16T12:26:06;101563.88;;;8.38;59.66
64298;BME280;50639;53.270;7.956;2023-03-16T12:28:33;101566.41;;;8.21;59.74
64298;BME280;50639;53.270;7.956;2023-03-16T12:31:14;101554.97;;;8.29;58.88
64298;BME280;50639;53.270;7.956;2023-03-16T12:33:49;101555.72;;;8.13;60.59
64298;BME280;50639;53.270;7.956;2023-03-16T12:39:08;101551.09;;;7.72;60.25
64298;BME280;50639;53.270;7.956;2023-03-16T12:44:17;101561.13;;;7.60;61.43
64298;BME280;50639;53.270;7.956;2023-03-16T12:46:47;101556.09;;;7.57;61.60
64298;BME280;50639;53.270;7.956;2023-03-16T12:49:16;101567.44;;;7.41;62.87
64298;BME280;50639;53.270;7.956;2023-03-16T12:51:43;101565.38;;;7.35;64.94
64298;BME280;50639;53.270;7.956;2023-03-16T12:54:23;101564.19;;;7.30;63.83
64298;BME280;50639;53.270;7.956;2023-03-16T12:56:51;101558.94;;;7.20;64.68
64298;BME280;50639;53.270;7.956;2023-03-16T12:59:22;101562.94;;;7.24;65.53
64298;BME280;50639;53.270;7.956;2023-03-16T13:01:48;101561.31;;;7.13;65.72
64298;BME280;50639;53.270;7.956;2023-03-16T13:04:33;101552.66;;;6.94;65.96
64298;BME280;50639;53.270;7.956;2023-03-16T13:07:23;101547.13;;;7.05;65.89
64298;BME280;50639;53.270;7.956;2023-03-16T13:14:48;101536.84;;;7.20;66.52
64298;BME280;50639;53.270;7.956;2023-03-16T13:20:48;101520.00;;;7.46;66.16
64298;BME280;50639;53.270;7.956;2023-03-16T13:22:46;101521.81;;;7.28;66.40
64298;BME280;50639;53.270;7.956;2023-03-16T13:25:15;101516.56;;;7.36;65.59
64298;BME280;50639;53.270;7.956;2023-03-16T13:27:47;101503.25;;;7.54;64.89
64298;BME280;50639;53.270;7.956;2023-03-16T13:30:35;101493.50;;;7.37;64.60
64298;BME280;50639;53.270;7.956;2023-03-16T13:33:18;101490.09;;;7.70;65.02
64298;BME280;50639;53.270;7.956;2023-03-16T13:35:45;101476.06;;;7.86;64.75
64298;BME280;50639;53.270;7.956;2023-03-16T13:38:13;101467.72;;;7.81;65.85
64298;BME280;50639;53.270;7.956;2023-03-16T13:40:52;101452.56;;;7.73;65.57
64298;BME280;50639;53.270;7.956;2023-03-16T13:43:22;101448.97;;;7.82;67.01
64298;BME280;50639;53.270;7.956;2023-03-16T13:45:48;101444.84;;;7.88;66.10
64298;BME280;50639;53.270;7.956;2023-03-16T13:48:15;101436.84;;;7.88;65.93
64298;BME280;50639;53.270;7.956;2023-03-16T13:50:41;101436.81;;;8.14;64.57
64298;BME280;50639;53.270;7.956;2023-03-16T13:53:18;101433.59;;;8.02;64.32
64298;BME280;50639;53.270;7.956;2023-03-16T13:55:46;101429.81;;;8.13;63.80
64298;BME280;50639;53.270;7.956;2023-03-16T13:58:37;101432.88;;;8.26;62.81
64298;BME280;50639;53.270;7.956;2023-03-16T14:01:23;101422.25;;;8.76;61.73
64298;BME280;50639;53.270;7.956;2023-03-16T14:03:49;101414.28;;;8.92;61.02
64298;BME280;50639;53.270;7.956;2023-03-16T14:06:26;101414.94;;;8.86;59.80
64298;BME280;50639;53.270;7.956;2023-03-16T14:08:56;101407.94;;;8.85;60.00
64298;BME280;50639;53.270;7.956;2023-03-16T14:11:25;101400.94;;;8.68;60.79
64298;BME280;50639;53.270;7.956;2023-03-16T14:13:52;101378.13;;;8.74;59.47
64298;BME280;50639;53.270;7.956;2023-03-16T14:16:21;101387.31;;;8.87;58.88
64298;BME280;50639;53.270;7.956;2023-03-16T14:21:24;101369.13;;;9.07;57.18
64298;BME280;50639;53.270;7.956;2023-03-16T14:23:52;101362.16;;;9.22;55.70
64298;BME280;50639;53.270;7.956;2023-03-16T14:26:19;101355.00;;;9.15;55.18
64298;BME280;50639;53.270;7.956;2023-03-16T14:28:56;101365.66;;;9.15;55.40
64298;BME280;50639;53.270;7.956;2023-03-16T14:31:37;101343.47;;;9.38;54.42